sensor_id;sensor_type;location;lat;lon;timestamp;pressure;altitude;pressure_sealevel;temperature;humidity
65614;BME280;52283;49.292;10.572;2022-12-16T00:00:08;95230.94;;;-3.83;100.00
65614;BME280;52283;49.292;10.572;2022-12-16T00:02:35;95229.41;;;-3.84;100.00
65614;BME280;52283;49.292;10.572;2022-12-16T00:05:02;95240.75;;;-3.86;100.00
65614;BME280;52283;49.292;10.572;2022-12-16T00:07:29;95231.03;;;-3.87;100.00
65614;BME280;52283;49.292;10.572;2022-12-16T00:09:55;95218.72;;;-3.91;100.00
65614;BME280;52283;49.292;10.572;2022-12-16T00:12:23;95230.84;;;-3.92;100.00
65614;BME280;52283;49.292;10.572;2022-12-16T00:14:50;95220.38;;;-3.94;100.00
65614;BME280;52283;49.292;10.572;2022-12-16T00:17:17;95223.75;;;-3.90;100.00
65614;BME280;52283;49.292;10.572;2022-12-16T00:19:43;95218.59;;;-4.01;100.00
65614;BME280;52283;49.292;10.572;2022-12-16T00:22:10;95216.31;;;-4.02;100.00
65614;BME280;52283;49.292;10.572;2022-12-16T00:24:36;95208.03;;;-4.11;100.00
65614;BME280;52283;49.292;10.572;2022-12-16T00:27:03;95202.59;;;-4.11;100.00
65614;BME280;52283;49.292;10.572;2022-12-16T00:29:30;95200.63;;;-4.11;100.00
65614;BME280;52283;49.292;10.572;2022-12-16T00:31:57;95204.56;;;-4.12;100.00
65614;BME280;52283;49.292;10.572;2022-12-16T00:34:23;95206.06;;;-4.23;100.00
65614;BME280;52283;49.292;10.572;2022-12-16T00:36:50;95207.59;;;-4.22;100.00
65614;BME280;52283;49.292;10.572;2022-12-16T00:39:17;95201.06;;;-4.25;100.00
65614;BME280;52283;49.292;10.572;2022-12-16T00:41:43;95200.06;;;-4.18;100.00
65614;BME280;52283;49.292;10.572;2022-12-16T00:44:11;95195.59;;;-4.25;100.00
65614;BME280;52283;49.292;10.572;2022-12-16T00:46:39;95196.03;;;-4.26;100.00
65614;BME280;52283;49.292;10.572;2022-12-16T00:49:06;95200.75;;;-4.14;100.00
65614;BME280;52283;49.292;10.572;2022-12-16T00:51:32;95191.66;;;-4.24;100.00
65614;BME280;52283;49.292;10.572;2022-12-16T00:53:59;95199.63;;;-4.17;100.00
65614;BME280;52283;49.292;10.572;2022-12-16T00:56:25;95192.31;;;-4.20;100.00
65614;BME280;52283;49.292;10.572;2022-12-16T00:58:52;95203.22;;;-4.20;100.00
65614;BME280;52283;49.292;10.572;2022-12-16T01:01:18;95205.09;;;-4.30;100.00
65614;BME280;52283;49.292;10.572;2022-12-16T01:03:46;95211.31;;;-4.29;100.00
65614;BME280;52283;49.292;10.572;2022-12-16T01:06:15;95213.72;;;-4.31;100.00
65614;BME280;52283;49.292;10.572;2022-12-16T01:08:42;95214.94;;;-4.32;100.00
65614;BME280;52283;49.292;10.572;2022-12-16T01:11:13;95219.50;;;-4.29;100.00
65614;BME280;52283;49.292;10.572;2022-12-16T01:13:39;95218.94;;;-4.24;100.00
65614;BME280;52283;49.292;10.572;2022-12-16T01:16:06;95227.47;;;-4.22;100.00
65614;BME280;52283;49.292;10.572;2022-12-16T01:18:32;95228.53;;;-4.19;100.00
65614;BME280;52283;49.292;10.572;2022-12-16T01:21:02;95229.53;;;-4.26;100.00
65614;BME280;52283;49.292;10.572;2022-12-16T01:23:29;95229.31;;;-4.19;100.00
65614;BME280;52283;49.292;10.572;2022-12-16T01:25:57;95230.50;;;-4.20;100.00
65614;BME280;52283;49.292;10.572;2022-12-16T01:28:24;95236.19;;;-4.27;100.00
65614;BME280;52283;49.292;10.572;2022-12-16T01:30:54;95231.19;;;-4.28;100.00
65614;BME280;52283;49.292;10.572;2022-12-16T01:33:21;95236.53;;;-4.25;100.00
65614;BME280;52283;49.292;10.572;2022-12-16T01:35:47;95228.66;;;-4.23;100.00
65614;BME280;52283;49.292;10.572;2022-12-16T01:38:15;95233.47;;;-4.27;100.00
65614;BME280;52283;49.292;10.572;2022-12-16T01:40:42;95230.84;;;-4.31;100.00
65614;BME280;52283;49.292;10.572;2022-12-16T01:43:09;95227.47;;;-4.35;100.00
65614;BME280;52283;49.292;10.572;2022-12-16T01:45:37;95231.19;;;-4.28;100.00
65614;BME280;52283;49.292;10.572;2022-12-16T01:48:13;95230.63;;;-4.23;100.00
65614;BME280;52283;49.292;10.572;2022-12-16T01:50:42;95226.16;;;-4.30;100.00
65614;BME280;52283;49.292;10.572;2022-12-16T01:53:09;95234.00;;;-4.32;100.00
65614;BME280;52283;49.292;10.572;2022-12-16T01:55:40;95222.22;;;-4.29;100.00
65614;BME280;52283;49.292;10.572;2022-12-16T01:58:11;95221.91;;;-4.31;100.00
65614;BME280;52283;49.292;10.572;2022-12-16T02:00:39;95223.09;;;-4.32;100.00
65614;BME280;52283;49.292;10.572;2022-12-16T02:03:08;95227.03;;;-4.33;100.00
65614;BME280;52283;49.292;10.572;2022-12-16T02:05:38;95229.09;;;-4.24;100.00
65614;BME280;52283;49.292;10.572;2022-12-16T02:08:10;95235.09;;;-4.30;100.00
65614;BME280;52283;49.292;10.572;2022-12-16T02:10:50;95232.50;;;-4.33;100.00
65614;BME280;52283;49.292;10.572;2022-12-16T02:13:25;95238.59;;;-4.29;100.00
65614;BME280;52283;49.292;10.572;2022-12-16T02:16:03;95236.19;;;-4.27;100.00
65614;BME280;52283;49.292;10.572;2022-12-16T02:18:38;95232.06;;;-4.32;100.00
65614;BME280;52283;49.292;10.572;2022-12-16T02:24:24;95240.22;;;-4.44;100.00
65614;BME280;52283;49.292;10.572;2022-12-16T02:27:29;95242.75;;;-4.37;100.00
65614;BME280;52283;49.292;10.572;2022-12-16T02:30:05;95250.25;;;-4.41;100.00
65614;BME280;52283;49.292;10.572;2022-12-16T02:32:44;95255.03;;;-4.45;100.00
65614;BME280;52283;49.292;10.572;2022-12-16T02:35:21;95256.38;;;-4.37;100.00
65614;BME280;52283;49.292;10.572;2022-12-16T02:37:55;95248.97;;;-4.37;100.00
65614;BME280;52283;49.292;10.572;2022-12-16T02:40:27;95258.44;;;-4.41;100.00
65614;BME280;52283;49.292;10.572;2022-12-16T02:43:02;95261.38;;;-4.48;100.00
65614;BME280;52283;49.292;10.572;2022-12-16T02:45:30;95263.22;;;-4.45;100.00
65614;BME280;52283;49.292;10.572;2022-12-16T02:47:58;95259.94;;;-4.53;100.00
65614;BME280;52283;49.292;10.572;2022-12-16T02:50:27;95264.66;;;-4.53;100.00
65614;BME280;52283;49.292;10.572;2022-12-16T02:52:56;95260.94;;;-4.47;100.00
65614;BME280;52283;49.292;10.572;2022-12-16T02:55:29;95257.13;;;-4.49;100.00
65614;BME280;52283;49.292;10.572;2022-12-16T02:58:06;95264.09;;;-4.48;100.00
65614;BME280;52283;49.292;10.572;2022-12-16T03:00:41;95255.38;;;-4.56;100.00
65614;BME280;52283;49.292;10.572;2022-12-16T03:03:14;95257.56;;;-4.51;100.00
65614;BME280;52283;49.292;10.572;2022-12-16T03:05:45;95256.47;;;-4.53;100.00
65614;BME280;52283;49.292;10.572;2022-12-16T03:08:17;95267.25;;;-4.50;100.00
65614;BME280;52283;49.292;10.572;2022-12-16T03:10:45;95258.75;;;-4.52;100.00
65614;BME280;52283;49.292;10.572;2022-12-16T03:13:13;95264.53;;;-4.50;100.00
65614;BME280;52283;49.292;10.572;2022-12-16T03:15:42;95269.56;;;-4.48;100.00
65614;BME280;52283;49.292;10.572;2022-12-16T03:18:12;95266.19;;;-4.40;100.00
65614;BME280;52283;49.292;10.572;2022-12-16T03:20:42;95273.03;;;-4.48;100.00
65614;BME280;52283;49.292;10.572;2022-12-16T03:23:13;95285.03;;;-4.45;100.00
65614;BME280;52283;49.292;10.572;2022-12-16T03:25:42;95275.66;;;-4.44;100.00
65614;BME280;52283;49.292;10.572;2022-12-16T03:28:17;95267.38;;;-4.41;100.00
65614;BME280;52283;49.292;10.572;2022-12-16T03:30:50;95260.38;;;-4.42;100.00
65614;BME280;52283;49.292;10.572;2022-12-16T03:33:24;95252.66;;;-4.43;100.00
65614;BME280;52283;49.292;10.572;2022-12-16T03:35:57;95254.59;;;-4.44;100.00
65614;BME280;52283;49.292;10.572;2022-12-16T03:38:25;95250.47;;;-4.48;100.00
65614;BME280;52283;49.292;10.572;2022-12-16T03:40:54;95256.78;;;-4.39;100.00
65614;BME280;52283;49.292;10.572;2022-12-16T03:43:22;95254.50;;;-4.53;100.00
65614;BME280;52283;49.292;10.572;2022-12-16T03:45:52;95254.28;;;-4.46;100.00
65614;BME280;52283;49.292;10.572;2022-12-16T03:48:23;95254.41;;;-4.49;100.00
65614;BME280;52283;49.292;10.572;2022-12-16T03:50:50;95261.81;;;-4.50;100.00
65614;BME280;52283;49.292;10.572;2022-12-16T03:53:17;95258.66;;;-4.48;100.00
65614;BME280;52283;49.292;10.572;2022-12-16T03:55:43;95266.72;;;-4.57;100.00
65614;BME280;52283;49.292;10.572;2022-12-16T03:58:10;95270.09;;;-4.53;100.00
65614;BME280;52283;49.292;10.572;2022-12-16T04:00:36;95281.44;;;-4.55;100.00
65614;BME280;52283;49.292;10.572;2022-12-16T04:03:03;95283.06;;;-4.57;100.00
65614;BME280;52283;49.292;10.572;2022-12-16T04:05:31;95285.91;;;-4.48;100.00
65614;BME280;52283;49.292;10.572;2022-12-16T04:07:57;95288.75;;;-4.52;100.00
65614;BME280;52283;49.292;10.572;2022-12-16T04:10:23;95289.19;;;-4.53;100.00
65614;BME280;52283;49.292;10.572;2022-12-16T04:13:04;95290.59;;;-4.49;100.00
65614;BME280;52283;49.292;10.572;2022-12-16T04:16:03;95296.38;;;-4.47;100.00
65614;BME280;52283;49.292;10.572;2022-12-16T04:18:47;95311.88;;;-4.44;100.00
65614;BME280;52283;49.292;10.572;2022-12-16T04:21:32;95313.19;;;-4.48;100.00
65614;BME280;52283;49.292;10.572;2022-12-16T04:24:18;95311.69;;;-4.37;100.00
65614;BME280;52283;49.292;10.572;2022-12-16T04:26:46;95317.00;;;-4.46;100.00
65614;BME280;52283;49.292;10.572;2022-12-16T04:29:31;95330.19;;;-4.44;100.00
65614;BME280;52283;49.292;10.572;2022-12-16T04:31:58;95338.53;;;-4.35;100.00
65614;BME280;52283;49.292;10.572;2022-12-16T04:34:25;95329.91;;;-4.34;100.00
65614;BME280;52283;49.292;10.572;2022-12-16T04:36:53;95337.56;;;-4.28;100.00
65614;BME280;52283;49.292;10.572;2022-12-16T04:39:37;95332.97;;;-4.32;100.00
65614;BME280;52283;49.292;10.572;2022-12-16T04:42:21;95329.69;;;-4.26;100.00
65614;BME280;52283;49.292;10.572;2022-12-16T04:45:06;95336.03;;;-4.30;100.00
65614;BME280;52283;49.292;10.572;2022-12-16T04:47:52;95334.81;;;-4.28;100.00
65614;BME280;52283;49.292;10.572;2022-12-16T04:50:36;95335.69;;;-4.32;100.00
65614;BME280;52283;49.292;10.572;2022-12-16T04:53:21;95331.34;;;-4.29;100.00
65614;BME280;52283;49.292;10.572;2022-12-16T04:56:05;95335.59;;;-4.28;100.00
65614;BME280;52283;49.292;10.572;2022-12-16T04:58:50;95343.00;;;-4.28;100.00
65614;BME280;52283;49.292;10.572;2022-12-16T05:01:34;95335.25;;;-4.30;100.00
65614;BME280;52283;49.292;10.572;2022-12-16T05:04:18;95340.06;;;-4.34;100.00
65614;BME280;52283;49.292;10.572;2022-12-16T05:07:02;95339.63;;;-4.33;100.00
65614;BME280;52283;49.292;10.572;2022-12-16T05:09:47;95335.69;;;-4.32;100.00
65614;BME280;52283;49.292;10.572;2022-12-16T05:12:31;95342.78;;;-4.34;100.00
65614;BME280;52283;49.292;10.572;2022-12-16T05:15:16;95342.47;;;-4.36;100.00
65614;BME280;52283;49.292;10.572;2022-12-16T05:18:07;95345.19;;;-4.36;100.00
65614;BME280;52283;49.292;10.572;2022-12-16T05:20:51;95339.09;;;-4.27;100.00
65614;BME280;52283;49.292;10.572;2022-12-16T05:23:35;95336.34;;;-4.27;100.00
65614;BME280;52283;49.292;10.572;2022-12-16T05:26:21;95344.66;;;-4.31;100.00
65614;BME280;52283;49.292;10.572;2022-12-16T05:29:05;95341.03;;;-4.28;100.00
65614;BME280;52283;49.292;10.572;2022-12-16T05:31:48;95350.53;;;-4.33;100.00
65614;BME280;52283;49.292;10.572;2022-12-16T05:34:32;95342.69;;;-4.31;100.00
65614;BME280;52283;49.292;10.572;2022-12-16T05:37:16;95351.41;;;-4.36;100.00
65614;BME280;52283;49.292;10.572;2022-12-16T05:40:01;95355.56;;;-4.31;100.00
65614;BME280;52283;49.292;10.572;2022-12-16T05:42:47;95362.97;;;-4.32;100.00
65614;BME280;52283;49.292;10.572;2022-12-16T05:45:31;95371.16;;;-4.32;100.00
65614;BME280;52283;49.292;10.572;2022-12-16T05:48:16;95376.59;;;-4.32;100.00
65614;BME280;52283;49.292;10.572;2022-12-16T05:51:00;95377.59;;;-4.25;100.00
65614;BME280;52283;49.292;10.572;2022-12-16T05:53:44;95384.34;;;-4.30;100.00
65614;BME280;52283;49.292;10.572;2022-12-16T05:56:28;95382.50;;;-4.33;100.00
65614;BME280;52283;49.292;10.572;2022-12-16T05:59:14;95401.50;;;-4.30;100.00
65614;BME280;52283;49.292;10.572;2022-12-16T06:01:58;95406.59;;;-4.32;100.00
65614;BME280;52283;49.292;10.572;2022-12-16T06:04:42;95409.34;;;-4.32;100.00
65614;BME280;52283;49.292;10.572;2022-12-16T06:07:26;95415.56;;;-4.31;100.00
65614;BME280;52283;49.292;10.572;2022-12-16T06:10:10;95416.75;;;-4.32;100.00
65614;BME280;52283;49.292;10.572;2022-12-16T06:12:54;95421.78;;;-4.31;100.00
65614;BME280;52283;49.292;10.572;2022-12-16T06:15:40;95415.47;;;-4.27;100.00
65614;BME280;52283;49.292;10.572;2022-12-16T06:18:24;95417.00;;;-4.26;100.00
65614;BME280;52283;49.292;10.572;2022-12-16T06:21:08;95424.63;;;-4.21;100.00
65614;BME280;52283;49.292;10.572;2022-12-16T06:23:52;95421.47;;;-4.20;100.00
65614;BME280;52283;49.292;10.572;2022-12-16T06:26:36;95420.03;;;-4.24;100.00
65614;BME280;52283;49.292;10.572;2022-12-16T06:29:29;95426.03;;;-4.30;100.00
65614;BME280;52283;49.292;10.572;2022-12-16T06:32:14;95432.25;;;-4.29;100.00
65614;BME280;52283;49.292;10.572;2022-12-16T06:34:58;95439.91;;;-4.24;100.00
65614;BME280;52283;49.292;10.572;2022-12-16T06:37:46;95441.00;;;-4.21;100.00
65614;BME280;52283;49.292;10.572;2022-12-16T06:40:30;95444.81;;;-4.19;100.00
65614;BME280;52283;49.292;10.572;2022-12-16T06:43:14;95445.03;;;-4.26;100.00
65614;BME280;52283;49.292;10.572;2022-12-16T06:45:58;95455.94;;;-4.26;100.00
65614;BME280;52283;49.292;10.572;2022-12-16T06:48:43;95457.47;;;-4.25;100.00
65614;BME280;52283;49.292;10.572;2022-12-16T06:51:27;95466.75;;;-4.22;100.00
65614;BME280;52283;49.292;10.572;2022-12-16T06:54:12;95464.47;;;-4.24;100.00
65614;BME280;52283;49.292;10.572;2022-12-16T06:56:56;95475.28;;;-4.20;100.00
65614;BME280;52283;49.292;10.572;2022-12-16T06:59:40;95480.06;;;-4.24;100.00
65614;BME280;52283;49.292;10.572;2022-12-16T07:02:26;95485.63;;;-4.28;100.00
65614;BME280;52283;49.292;10.572;2022-12-16T07:05:12;95491.41;;;-4.26;100.00
65614;BME280;52283;49.292;10.572;2022-12-16T07:07:56;95492.94;;;-4.25;100.00
65614;BME280;52283;49.292;10.572;2022-12-16T07:10:40;95496.53;;;-4.28;100.00
65614;BME280;52283;49.292;10.572;2022-12-16T07:13:39;95501.44;;;-4.23;100.00
65614;BME280;52283;49.292;10.572;2022-12-16T07:16:23;95502.75;;;-4.27;100.00
65614;BME280;52283;49.292;10.572;2022-12-16T07:19:07;95497.53;;;-4.22;100.00
65614;BME280;52283;49.292;10.572;2022-12-16T07:21:52;95504.34;;;-4.14;100.00
65614;BME280;52283;49.292;10.572;2022-12-16T07:24:36;95516.78;;;-4.13;100.00
65614;BME280;52283;49.292;10.572;2022-12-16T07:27:20;95512.88;;;-4.12;100.00
65614;BME280;52283;49.292;10.572;2022-12-16T07:30:05;95520.09;;;-4.05;100.00
65614;BME280;52283;49.292;10.572;2022-12-16T07:32:49;95528.38;;;-4.09;100.00
65614;BME280;52283;49.292;10.572;2022-12-16T07:35:33;95533.28;;;-4.04;100.00
65614;BME280;52283;49.292;10.572;2022-12-16T07:38:19;95538.91;;;-3.94;100.00
65614;BME280;52283;49.292;10.572;2022-12-16T07:41:03;95540.28;;;-4.03;100.00
65614;BME280;52283;49.292;10.572;2022-12-16T07:43:47;95548.91;;;-4.04;100.00
65614;BME280;52283;49.292;10.572;2022-12-16T07:46:31;95562.88;;;-4.02;100.00
65614;BME280;52283;49.292;10.572;2022-12-16T07:49:15;95570.63;;;-4.01;100.00
65614;BME280;52283;49.292;10.572;2022-12-16T07:51:59;95569.69;;;-3.94;100.00
65614;BME280;52283;49.292;10.572;2022-12-16T07:54:45;95573.97;;;-3.93;100.00
65614;BME280;52283;49.292;10.572;2022-12-16T07:57:29;95576.44;;;-3.99;100.00
65614;BME280;52283;49.292;10.572;2022-12-16T08:00:13;95584.13;;;-3.93;100.00
65614;BME280;52283;49.292;10.572;2022-12-16T08:02:57;95589.81;;;-3.88;100.00
65614;BME280;52283;49.292;10.572;2022-12-16T08:05:41;95595.69;;;-3.89;100.00
65614;BME280;52283;49.292;10.572;2022-12-16T08:08:25;95599.44;;;-3.83;100.00
65614;BME280;52283;49.292;10.572;2022-12-16T08:11:11;95602.34;;;-3.90;100.00
65614;BME280;52283;49.292;10.572;2022-12-16T08:13:55;95605.94;;;-3.93;100.00
65614;BME280;52283;49.292;10.572;2022-12-16T08:16:39;95602.38;;;-4.07;100.00
65614;BME280;52283;49.292;10.572;2022-12-16T08:19:23;95613.97;;;-4.03;100.00
65614;BME280;52283;49.292;10.572;2022-12-16T08:22:08;95605.69;;;-3.99;100.00
65614;BME280;52283;49.292;10.572;2022-12-16T08:24:52;95614.22;;;-3.97;100.00
65614;BME280;52283;49.292;10.572;2022-12-16T08:27:37;95610.56;;;-3.90;100.00
65614;BME280;52283;49.292;10.572;2022-12-16T08:30:21;95611.22;;;-3.86;100.00
65614;BME280;52283;49.292;10.572;2022-12-16T08:33:05;95619.31;;;-3.83;100.00
65614;BME280;52283;49.292;10.572;2022-12-16T08:35:50;95620.16;;;-3.70;100.00
65614;BME280;52283;49.292;10.572;2022-12-16T08:38:34;95629.25;;;-3.60;100.00
65614;BME280;52283;49.292;10.572;2022-12-16T08:41:18;95629.25;;;-3.60;100.00
65614;BME280;52283;49.292;10.572;2022-12-16T08:44:09;95631.59;;;-3.46;100.00
65614;BME280;52283;49.292;10.572;2022-12-16T08:46:52;95632.81;;;-3.47;100.00
65614;BME280;52283;49.292;10.572;2022-12-16T08:49:35;95632.47;;;-3.49;100.00
65614;BME280;52283;49.292;10.572;2022-12-16T08:52:19;95634.22;;;-3.42;100.00
65614;BME280;52283;49.292;10.572;2022-12-16T08:55:04;95640.66;;;-3.49;100.00
65614;BME280;52283;49.292;10.572;2022-12-16T08:57:52;95650.16;;;-3.53;100.00
65614;BME280;52283;49.292;10.572;2022-12-16T09:00:37;95648.97;;;-3.52;100.00
65614;BME280;52283;49.292;10.572;2022-12-16T09:03:22;95649.03;;;-3.56;100.00
65614;BME280;52283;49.292;10.572;2022-12-16T09:06:06;95659.94;;;-3.56;100.00
65614;BME280;52283;49.292;10.572;2022-12-16T09:08:50;95658.50;;;-3.60;100.00
65614;BME280;52283;49.292;10.572;2022-12-16T09:11:34;95667.91;;;-3.61;100.00
65614;BME280;52283;49.292;10.572;2022-12-16T09:14:18;95672.25;;;-3.64;100.00
65614;BME280;52283;49.292;10.572;2022-12-16T09:17:03;95683.72;;;-3.69;100.00
65614;BME280;52283;49.292;10.572;2022-12-16T09:19:48;95676.53;;;-3.63;100.00
65614;BME280;52283;49.292;10.572;2022-12-16T09:22:31;95681.91;;;-3.59;100.00
65614;BME280;52283;49.292;10.572;2022-12-16T09:25:16;95695.44;;;-3.56;100.00
65614;BME280;52283;49.292;10.572;2022-12-16T09:28:00;95701.44;;;-3.61;100.00
65614;BME280;52283;49.292;10.572;2022-12-16T09:30:44;95695.88;;;-3.57;100.00
65614;BME280;52283;49.292;10.572;2022-12-16T09:33:29;95696.59;;;-3.53;100.00
65614;BME280;52283;49.292;10.572;2022-12-16T09:36:14;95696.97;;;-3.39;100.00
65614;BME280;52283;49.292;10.572;2022-12-16T09:38:58;95703.97;;;-3.38;100.00
65614;BME280;52283;49.292;10.572;2022-12-16T09:41:43;95703.78;;;-3.30;100.00
65614;BME280;52283;49.292;10.572;2022-12-16T09:44:37;95711.13;;;-3.27;100.00
65614;BME280;52283;49.292;10.572;2022-12-16T09:47:32;95713.44;;;-3.13;100.00
65614;BME280;52283;49.292;10.572;2022-12-16T09:50:22;95720.94;;;-3.01;100.00
65614;BME280;52283;49.292;10.572;2022-12-16T09:53:10;95721.59;;;-2.97;100.00
65614;BME280;52283;49.292;10.572;2022-12-16T09:55:56;95725.59;;;-3.14;100.00
65614;BME280;52283;49.292;10.572;2022-12-16T09:58:45;95729.00;;;-3.10;100.00
65614;BME280;52283;49.292;10.572;2022-12-16T10:01:35;95733.34;;;-3.13;100.00
65614;BME280;52283;49.292;10.572;2022-12-16T10:04:19;95736.53;;;-3.14;100.00
65614;BME280;52283;49.292;10.572;2022-12-16T10:07:07;95733.13;;;-3.18;100.00
65614;BME280;52283;49.292;10.572;2022-12-16T10:10:00;95732.19;;;-3.12;100.00
65614;BME280;52283;49.292;10.572;2022-12-16T10:12:55;95736.19;;;-3.16;100.00
65614;BME280;52283;49.292;10.572;2022-12-16T10:15:51;95736.63;;;-3.18;100.00
65614;BME280;52283;49.292;10.572;2022-12-16T10:18:46;95741.63;;;-3.00;100.00
65614;BME280;52283;49.292;10.572;2022-12-16T10:21:39;95738.88;;;-3.00;100.00
65614;BME280;52283;49.292;10.572;2022-12-16T10:24:35;95740.88;;;-3.17;100.00
65614;BME280;52283;49.292;10.572;2022-12-16T10:27:28;95739.84;;;-3.07;100.00
65614;BME280;52283;49.292;10.572;2022-12-16T10:30:15;95742.16;;;-3.05;100.00
65614;BME280;52283;49.292;10.572;2022-12-16T10:33:14;95733.66;;;-2.94;100.00
65614;BME280;52283;49.292;10.572;2022-12-16T10:35:59;95737.88;;;-3.06;100.00
65614;BME280;52283;49.292;10.572;2022-12-16T10:38:45;95742.16;;;-3.05;100.00
65614;BME280;52283;49.292;10.572;2022-12-16T10:41:35;95752.47;;;-3.13;100.00
65614;BME280;52283;49.292;10.572;2022-12-16T10:44:23;95747.38;;;-3.11;100.00
65614;BME280;52283;49.292;10.572;2022-12-16T10:47:09;95750.00;;;-3.07;100.00
65614;BME280;52283;49.292;10.572;2022-12-16T10:49:53;95763.03;;;-2.98;100.00
65614;BME280;52283;49.292;10.572;2022-12-16T10:52:43;95760.75;;;-3.00;100.00
65614;BME280;52283;49.292;10.572;2022-12-16T10:55:36;95762.78;;;-2.88;100.00
65614;BME280;52283;49.292;10.572;2022-12-16T10:58:36;95759.50;;;-2.83;100.00
65614;BME280;52283;49.292;10.572;2022-12-16T11:01:27;95763.34;;;-2.80;100.00
65614;BME280;52283;49.292;10.572;2022-12-16T11:04:27;95755.91;;;-2.80;100.00
65614;BME280;52283;49.292;10.572;2022-12-16T11:07:23;95755.47;;;-2.78;100.00
65614;BME280;52283;49.292;10.572;2022-12-16T11:10:29;95756.34;;;-2.81;100.00
65614;BME280;52283;49.292;10.572;2022-12-16T11:13:20;95762.03;;;-2.76;100.00
65614;BME280;52283;49.292;10.572;2022-12-16T11:16:10;95760.78;;;-2.58;100.00
65614;BME280;52283;49.292;10.572;2022-12-16T11:18:54;95761.31;;;-2.63;100.00
65614;BME280;52283;49.292;10.572;2022-12-16T11:21:38;95766.13;;;-2.67;100.00
65614;BME280;52283;49.292;10.572;2022-12-16T11:24:22;95764.88;;;-2.79;100.00
65614;BME280;52283;49.292;10.572;2022-12-16T11:27:13;95762.56;;;-2.81;100.00
65614;BME280;52283;49.292;10.572;2022-12-16T11:29:59;95766.31;;;-2.74;100.00
65614;BME280;52283;49.292;10.572;2022-12-16T11:32:47;95770.50;;;-2.70;100.00
65614;BME280;52283;49.292;10.572;2022-12-16T11:35:33;95762.81;;;-2.75;100.00
65614;BME280;52283;49.292;10.572;2022-12-16T11:38:23;95769.97;;;-2.65;100.00
65614;BME280;52283;49.292;10.572;2022-12-16T11:41:21;95769.66;;;-2.54;100.00
65614;BME280;52283;49.292;10.572;2022-12-16T11:44:11;95775.28;;;-2.74;100.00
65614;BME280;52283;49.292;10.572;2022-12-16T11:46:56;95784.84;;;-2.66;100.00
65614;BME280;52283;49.292;10.572;2022-12-16T11:49:53;95783.75;;;-2.56;100.00
65614;BME280;52283;49.292;10.572;2022-12-16T11:52:50;95787.63;;;-2.40;100.00
65614;BME280;52283;49.292;10.572;2022-12-16T11:55:36;95793.75;;;-2.36;100.00
65614;BME280;52283;49.292;10.572;2022-12-16T11:58:28;95796.88;;;-2.63;100.00
65614;BME280;52283;49.292;10.572;2022-12-16T12:01:17;95797.41;;;-2.68;100.00
65614;BME280;52283;49.292;10.572;2022-12-16T12:04:15;95802.28;;;-2.76;100.00
65614;BME280;52283;49.292;10.572;2022-12-16T12:07:16;95803.50;;;-2.77;100.00
65614;BME280;52283;49.292;10.572;2022-12-16T12:10:26;95804.31;;;-2.64;100.00
65614;BME280;52283;49.292;10.572;2022-12-16T12:13:20;95806.84;;;-2.57;100.00
65614;BME280;52283;49.292;10.572;2022-12-16T12:16:14;95823.63;;;-2.71;100.00
65614;BME280;52283;49.292;10.572;2022-12-16T12:19:06;95817.69;;;-2.82;100.00
65614;BME280;52283;49.292;10.572;2022-12-16T12:21:59;95820.91;;;-2.71;100.00
65614;BME280;52283;49.292;10.572;2022-12-16T12:24:49;95817.16;;;-2.77;100.00
65614;BME280;52283;49.292;10.572;2022-12-16T12:27:38;95825.22;;;-2.57;100.00
65614;BME280;52283;49.292;10.572;2022-12-16T12:30:25;95825.28;;;-2.73;100.00
65614;BME280;52283;49.292;10.572;2022-12-16T12:33:23;95830.75;;;-2.73;100.00
65614;BME280;52283;49.292;10.572;2022-12-16T12:36:18;95829.50;;;-2.85;100.00
65614;BME280;52283;49.292;10.572;2022-12-16T12:39:13;95824.50;;;-2.74;100.00
65614;BME280;52283;49.292;10.572;2022-12-16T12:42:10;95831.66;;;-2.64;100.00
65614;BME280;52283;49.292;10.572;2022-12-16T12:45:08;95843.47;;;-2.67;100.00
65614;BME280;52283;49.292;10.572;2022-12-16T12:48:10;95840.56;;;-2.76;100.00
65614;BME280;52283;49.292;10.572;2022-12-16T12:51:04;95847.88;;;-2.86;100.00
65614;BME280;52283;49.292;10.572;2022-12-16T12:53:58;95853.25;;;-2.82;100.00
65614;BME280;52283;49.292;10.572;2022-12-16T12:56:47;95854.34;;;-2.80;100.00
65614;BME280;52283;49.292;10.572;2022-12-16T12:59:43;95866.16;;;-2.83;100.00
65614;BME280;52283;49.292;10.572;2022-12-16T13:02:42;95863.75;;;-2.81;100.00
65614;BME280;52283;49.292;10.572;2022-12-16T13:05:30;95865.19;;;-2.76;100.00
65614;BME280;52283;49.292;10.572;2022-12-16T13:08:41;95868.59;;;-2.72;100.00
65614;BME280;52283;49.292;10.572;2022-12-16T13:11:26;95871.72;;;-2.86;100.00
65614;BME280;52283;49.292;10.572;2022-12-16T13:14:53;95877.28;;;-3.06;100.00
65614;BME280;52283;49.292;10.572;2022-12-16T13:18:11;95892.66;;;-3.12;100.00
65614;BME280;52283;49.292;10.572;2022-12-16T13:20:56;95888.13;;;-3.02;100.00
65614;BME280;52283;49.292;10.572;2022-12-16T13:23:42;95888.38;;;-3.13;100.00
65614;BME280;52283;49.292;10.572;2022-12-16T13:26:28;95893.69;;;-3.22;100.00
65614;BME280;52283;49.292;10.572;2022-12-16T13:29:17;95891.72;;;-3.22;100.00
65614;BME280;52283;49.292;10.572;2022-12-16T13:32:17;95895.03;;;-3.14;100.00
65614;BME280;52283;49.292;10.572;2022-12-16T13:35:04;95903.06;;;-3.23;100.00
65614;BME280;52283;49.292;10.572;2022-12-16T13:37:59;95910.59;;;-3.11;100.00
65614;BME280;52283;49.292;10.572;2022-12-16T13:40:51;95907.88;;;-3.11;100.00
65614;BME280;52283;49.292;10.572;2022-12-16T13:43:47;95915.78;;;-3.17;100.00
65614;BME280;52283;49.292;10.572;2022-12-16T13:46:39;95914.88;;;-3.10;100.00
65614;BME280;52283;49.292;10.572;2022-12-16T13:49:42;95921.59;;;-3.15;100.00
65614;BME280;52283;49.292;10.572;2022-12-16T13:52:34;95929.38;;;-3.13;100.00
65614;BME280;52283;49.292;10.572;2022-12-16T13:55:25;95926.47;;;-3.22;100.00
65614;BME280;52283;49.292;10.572;2022-12-16T13:58:18;95931.75;;;-3.15;100.00